createdAt,value
2022-12-07T00:01:23.869Z,15.40
2022-12-07T00:03:53.584Z,36.72
2022-12-07T00:06:21.682Z,20.48
2022-12-07T00:08:49.354Z,9.02
2022-12-07T00:11:18.931Z,5.18
2022-12-07T00:13:46.610Z,8.35
2022-12-07T00:16:16.559Z,7.13
2022-12-07T00:18:44.345Z,3.90
2022-12-07T00:21:14.893Z,4.57
2022-12-07T00:23:43.610Z,4.25
2022-12-07T00:26:12.197Z,10.07
2022-12-07T00:28:39.645Z,5.53
2022-12-07T00:31:12.915Z,6.55
2022-12-07T00:33:40.030Z,7.10
2022-12-07T00:36:10.132Z,3.00
2022-12-07T00:38:39.116Z,6.53
2022-12-07T00:41:08.965Z,6.53
2022-12-07T00:43:35.929Z,2.55
2022-12-07T00:46:02.939Z,6.28
2022-12-07T00:48:30.059Z,4.97
2022-12-07T00:50:57.071Z,8.13
2022-12-07T00:53:24.797Z,5.18
2022-12-07T00:55:51.866Z,20.15
2022-12-07T00:58:18.821Z,4.70
2022-12-07T01:00:45.858Z,6.05
2022-12-07T01:03:15.330Z,57.97
2022-12-07T01:05:50.902Z,22.10
2022-12-07T01:08:17.911Z,35.65
2022-12-07T01:10:44.878Z,94.57
2022-12-07T01:13:12.145Z,68.72
2022-12-07T01:15:43.865Z,115.97
2022-12-07T01:18:11.339Z,115.55
2022-12-07T01:20:38.546Z,83.30
2022-12-07T01:23:05.603Z,53.97
2022-12-07T01:25:32.501Z,60.10
2022-12-07T01:27:59.554Z,77.40
2022-12-07T01:30:26.665Z,60.13
2022-12-07T01:32:53.754Z,104.75
2022-12-07T01:35:20.785Z,136.65
2022-12-07T01:37:47.682Z,54.58
2022-12-07T01:40:14.627Z,38.05
2022-12-07T01:42:41.554Z,34.28
2022-12-07T01:45:47.139Z,4.97
2022-12-07T01:48:18.202Z,83.60
2022-12-07T01:50:49.382Z,61.13
2022-12-07T01:53:17.544Z,71.70
2022-12-07T01:55:48.149Z,126.25
2022-12-07T01:58:16.446Z,147.40
2022-12-07T02:00:43.458Z,106.28
2022-12-07T02:03:17.001Z,56.88
2022-12-07T02:05:45.284Z,15.93
2022-12-07T02:08:14.178Z,23.48
2022-12-07T02:10:41.482Z,5.47
2022-12-07T02:13:20.362Z,11.05
2022-12-07T02:16:01.381Z,4.68
2022-12-07T02:18:40.880Z,5.53
2022-12-07T02:21:24.423Z,8.57
2022-12-07T02:24:28.586Z,4.60
2022-12-07T02:27:20.018Z,5.95
2022-12-07T02:29:53.854Z,6.88
2022-12-07T02:32:42.522Z,12.20
2022-12-07T02:35:36.784Z,6.57
2022-12-07T02:38:24.037Z,6.10
2022-12-07T02:41:14.703Z,11.50
2022-12-07T02:43:47.100Z,5.68
2022-12-07T02:46:18.697Z,6.20
2022-12-07T02:48:47.650Z,4.93
2022-12-07T02:51:14.666Z,8.43
2022-12-07T02:53:43.859Z,7.00
2022-12-07T02:56:29.473Z,7.13
2022-12-07T02:59:17.260Z,7.93
2022-12-07T03:01:59.882Z,7.88
2022-12-07T03:05:00.494Z,5.85
2022-12-07T03:07:36.131Z,7.30
2022-12-07T03:10:21.048Z,6.73
2022-12-07T03:13:26.746Z,7.10
2022-12-07T03:16:11.833Z,12.10
2022-12-07T03:18:56.714Z,6.20
2022-12-07T03:21:32.831Z,6.35
2022-12-07T03:24:04.387Z,10.85
2022-12-07T03:26:42.954Z,11.60
2022-12-07T03:29:14.722Z,6.05
2022-12-07T03:31:46.489Z,9.38
2022-12-07T03:34:23.082Z,5.93
2022-12-07T03:37:19.448Z,8.85
2022-12-07T03:39:58.896Z,7.18
2022-12-07T03:42:26.424Z,7.95
2022-12-07T03:44:53.411Z,8.35
2022-12-07T03:47:49.530Z,7.93
2022-12-07T03:50:42.902Z,9.05
2022-12-07T03:53:19.445Z,9.25
2022-12-07T03:58:20.285Z,9.57
2022-12-07T04:00:48.488Z,8.40
2022-12-07T04:03:15.550Z,7.88
2022-12-07T04:05:43.515Z,13.75
2022-12-07T04:08:10.773Z,8.80
2022-12-07T04:10:37.781Z,8.23
2022-12-07T04:13:04.864Z,7.72
2022-12-07T04:15:31.968Z,12.48
2022-12-07T04:17:58.859Z,9.93
2022-12-07T04:20:26.082Z,8.88
2022-12-07T04:22:53.125Z,8.80
2022-12-07T04:25:20.038Z,11.15
2022-12-07T04:27:46.999Z,10.93
2022-12-07T04:30:13.927Z,10.38
2022-12-07T04:32:40.902Z,8.63
2022-12-07T04:35:08.359Z,10.70
2022-12-07T04:37:35.305Z,30.88
2022-12-07T04:40:02.527Z,19.70
2022-12-07T04:42:29.702Z,26.35
2022-12-07T04:44:56.583Z,12.45
2022-12-07T04:47:23.451Z,8.48
2022-12-07T04:49:50.367Z,11.00
2022-12-07T04:52:17.232Z,9.88
2022-12-07T04:54:44.113Z,20.73
2022-12-07T04:57:11.070Z,29.38
2022-12-07T04:59:41.029Z,12.55
2022-12-07T05:02:12.173Z,24.25
2022-12-07T05:04:39.183Z,11.45
2022-12-07T05:07:06.051Z,8.32
2022-12-07T05:09:33.018Z,8.38
2022-12-07T05:11:59.877Z,8.43
2022-12-07T05:14:26.917Z,10.43
2022-12-07T05:16:54.650Z,13.60
2022-12-07T05:19:21.782Z,10.32
2022-12-07T05:21:49.375Z,9.02
2022-12-07T05:24:17.990Z,15.30
2022-12-07T05:26:45.893Z,9.25
2022-12-07T05:29:15.455Z,11.90
2022-12-07T05:31:43.354Z,11.32
2022-12-07T05:34:10.887Z,28.83
2022-12-07T05:36:38.796Z,31.55
2022-12-07T05:39:05.916Z,18.83
2022-12-07T05:41:51.460Z,18.48
2022-12-07T05:44:18.414Z,27.13
2022-12-07T05:46:45.399Z,8.65
2022-12-07T05:49:12.281Z,12.98
2022-12-07T05:51:39.226Z,16.80
2022-12-07T05:54:06.223Z,27.73
2022-12-07T05:56:33.218Z,47.35
2022-12-07T05:59:19.071Z,56.75
2022-12-07T06:01:46.155Z,69.65
2022-12-07T06:04:13.226Z,47.92
2022-12-07T06:06:40.319Z,34.80
2022-12-07T06:09:08.041Z,59.40
2022-12-07T06:11:53.762Z,78.30
2022-12-07T06:14:20.690Z,66.78
2022-12-07T06:16:48.999Z,143.77
2022-12-07T06:19:15.980Z,119.55
2022-12-07T06:21:42.951Z,104.13
2022-12-07T06:24:14.310Z,49.83
2022-12-07T06:26:41.757Z,39.28
2022-12-07T06:29:09.440Z,52.50
2022-12-07T06:31:37.803Z,47.60
2022-12-07T06:34:13.268Z,30.58
2022-12-07T06:36:40.481Z,22.13
2022-12-07T06:39:10.175Z,21.13
2022-12-07T06:41:38.006Z,14.63
2022-12-07T06:44:06.248Z,14.95
2022-12-07T06:46:33.747Z,12.85
2022-12-07T06:49:00.786Z,13.25
2022-12-07T06:51:28.099Z,12.65
2022-12-07T06:53:55.023Z,19.20
2022-12-07T06:56:22.079Z,13.70
2022-12-07T06:58:48.940Z,18.77
2022-12-07T07:01:18.797Z,12.77
2022-12-07T07:03:47.202Z,16.42
2022-12-07T07:06:15.200Z,13.07
2022-12-07T07:08:43.060Z,19.50
2022-12-07T07:11:10.819Z,17.63
2022-12-07T07:13:38.429Z,12.43
2022-12-07T07:16:06.523Z,13.50
2022-12-07T07:18:33.604Z,12.57
2022-12-07T07:21:00.613Z,12.88
2022-12-07T07:23:27.786Z,14.75
2022-12-07T07:25:54.794Z,17.25
2022-12-07T07:28:21.704Z,15.95
2022-12-07T07:30:48.675Z,11.63
2022-12-07T07:33:16.218Z,14.25
2022-12-07T07:35:43.155Z,11.70
2022-12-07T07:38:10.199Z,11.18
2022-12-07T07:40:37.929Z,15.10
2022-12-07T07:43:04.890Z,11.50
2022-12-07T07:45:31.836Z,14.85
2022-12-07T07:47:58.800Z,13.55
2022-12-07T07:50:25.702Z,11.77
2022-12-07T07:52:53.164Z,12.10
2022-12-07T07:55:20.449Z,20.98
2022-12-07T07:57:54.203Z,15.65
2022-12-07T08:00:22.400Z,18.67
2022-12-07T08:02:49.332Z,11.88
2022-12-07T08:05:16.845Z,12.98
2022-12-07T08:07:44.559Z,12.82
2022-12-07T08:10:13.261Z,14.32
2022-12-07T08:13:01.873Z,8.80
2022-12-07T08:15:30.816Z,16.90
2022-12-07T08:17:57.877Z,9.05
2022-12-07T08:20:24.930Z,14.32
2022-12-07T08:22:52.036Z,19.60
2022-12-07T08:25:19.185Z,12.95
2022-12-07T08:27:46.233Z,13.55
2022-12-07T08:30:13.292Z,11.25
2022-12-07T08:32:40.292Z,12.25
2022-12-07T08:35:07.518Z,13.30
2022-12-07T08:37:34.810Z,9.30
2022-12-07T08:40:02.124Z,10.82
2022-12-07T08:42:30.983Z,13.35
2022-12-07T08:44:58.461Z,11.32
2022-12-07T08:47:26.404Z,17.20
2022-12-07T08:49:55.450Z,9.10
2022-12-07T08:52:22.899Z,11.73
2022-12-07T08:54:50.257Z,12.55
2022-12-07T08:57:17.544Z,18.95
2022-12-07T08:59:44.487Z,17.73
2022-12-07T09:02:11.411Z,15.77
2022-12-07T09:04:38.410Z,17.08
2022-12-07T09:07:05.757Z,11.90
2022-12-07T09:09:33.022Z,9.98
2022-12-07T09:12:00.107Z,12.63
2022-12-07T09:14:27.172Z,14.38
2022-12-07T09:16:54.083Z,13.55
2022-12-07T09:19:21.200Z,11.50
2022-12-07T09:21:48.124Z,11.05
2022-12-07T09:24:15.206Z,8.20
2022-12-07T09:26:42.157Z,14.25
2022-12-07T09:29:09.053Z,12.10
2022-12-07T09:31:38.387Z,9.57
2022-12-07T09:34:06.847Z,10.93
2022-12-07T09:36:34.496Z,9.05
2022-12-07T09:39:01.768Z,11.45
2022-12-07T09:41:31.395Z,12.15
2022-12-07T09:44:22.999Z,15.25
2022-12-07T10:18:42.378Z,8.90
2022-12-07T10:21:10.112Z,13.82
2022-12-07T10:23:39.435Z,11.27
2022-12-07T10:26:29.611Z,10.90
2022-12-07T10:28:59.919Z,10.82
2022-12-07T10:31:26.954Z,12.15
2022-12-07T10:33:59.414Z,13.60
2022-12-07T10:36:35.852Z,16.35
2022-12-07T10:39:11.674Z,12.23
2022-12-07T10:41:55.622Z,12.90
2022-12-07T10:44:25.253Z,13.73
2022-12-07T10:47:00.922Z,10.63
2022-12-07T10:49:56.705Z,14.67
2022-12-07T10:52:32.338Z,12.23
2022-12-07T10:55:22.402Z,15.70
2022-12-07T10:57:52.165Z,13.75
2022-12-07T11:00:26.585Z,11.02
2022-12-07T11:02:53.530Z,13.15
2022-12-07T11:05:50.601Z,15.88
2022-12-07T11:08:17.422Z,12.90
2022-12-07T11:11:13.489Z,10.88
2022-12-07T11:13:57.326Z,23.10
2022-12-07T11:16:52.940Z,13.90
2022-12-07T11:19:22.768Z,14.80
2022-12-07T11:22:14.414Z,12.57
2022-12-07T11:25:15.085Z,15.13
2022-12-07T11:28:29.774Z,15.80
2022-12-07T11:31:06.031Z,12.77
2022-12-07T11:34:01.427Z,15.38
2022-12-07T11:36:37.118Z,14.30
2022-12-07T11:39:16.715Z,14.60
2022-12-07T11:41:44.296Z,14.35
2022-12-07T11:44:40.873Z,16.92
2022-12-07T11:47:21.515Z,21.52
2022-12-07T11:50:07.524Z,18.63
2022-12-07T11:52:50.251Z,21.23
2022-12-07T11:55:30.583Z,14.18
2022-12-07T11:58:22.681Z,13.45
2022-12-07T12:00:53.423Z,17.52
2022-12-07T12:03:31.450Z,12.48
2022-12-07T12:05:58.711Z,11.75
2022-12-07T12:17:48.074Z,24.00
2022-12-07T12:20:52.377Z,16.75
2022-12-07T12:23:25.482Z,10.50
2022-12-07T12:25:57.112Z,12.20
2022-12-07T12:28:32.664Z,11.70
2022-12-07T12:31:09.594Z,13.93
2022-12-07T12:33:38.402Z,15.23
2022-12-07T12:36:17.281Z,17.20
2022-12-07T12:39:08.211Z,18.20
2022-12-07T12:42:00.933Z,16.88
2022-12-07T12:44:30.533Z,12.77
2022-12-07T12:47:48.844Z,12.40
2022-12-07T12:50:22.438Z,14.70
2022-12-07T12:53:05.939Z,10.93
2022-12-07T12:55:44.702Z,12.95
2022-12-07T12:58:20.576Z,11.68
2022-12-07T13:00:50.144Z,14.80
2022-12-07T13:03:32.928Z,14.25
2022-12-07T13:06:25.649Z,13.73
2022-12-07T13:08:55.528Z,10.57
2022-12-07T13:11:36.605Z,16.65
2022-12-07T13:14:41.458Z,10.32
2022-12-07T13:17:33.659Z,16.00
2022-12-07T13:20:05.982Z,18.58
2022-12-07T13:22:32.771Z,12.05
2022-12-07T13:25:12.016Z,13.23
2022-12-07T13:27:42.169Z,12.65
2022-12-07T13:30:16.609Z,10.70
2022-12-07T13:32:43.966Z,14.25
2022-12-07T13:35:38.579Z,15.73
2022-12-07T13:38:16.172Z,14.23
2022-12-07T13:40:43.106Z,9.98
2022-12-07T13:43:16.363Z,13.70
2022-12-07T13:45:49.365Z,10.02
2022-12-07T13:48:49.965Z,19.27
2022-12-07T13:51:22.165Z,18.55
2022-12-07T13:53:51.816Z,16.33
2022-12-07T13:56:19.002Z,13.05
2022-12-07T13:58:46.110Z,24.60
2022-12-07T14:01:14.591Z,23.58
2022-12-07T14:03:41.627Z,15.30
2022-12-07T14:06:16.832Z,14.45
2022-12-07T14:08:44.731Z,24.20
2022-12-07T14:11:19.935Z,14.90
2022-12-07T14:14:03.217Z,19.52
2022-12-07T14:16:40.057Z,15.88
2022-12-07T14:19:48.646Z,17.52
2022-12-07T14:22:36.455Z,15.70
2022-12-07T14:25:17.784Z,18.05
2022-12-07T14:27:57.412Z,22.40
2022-12-07T14:30:29.688Z,17.98
2022-12-07T14:33:06.694Z,20.83
2022-12-07T14:35:34.017Z,15.68
2022-12-07T14:38:01.101Z,20.17
2022-12-07T14:40:29.948Z,25.02
2022-12-07T14:43:10.100Z,21.08
2022-12-07T14:45:37.020Z,19.98
2022-12-07T14:53:43.842Z,16.50
2022-12-07T14:56:10.810Z,15.88
2022-12-07T14:58:37.840Z,20.35
2022-12-07T15:01:04.918Z,21.55
2022-12-07T15:03:31.891Z,13.02
2022-12-07T15:05:59.225Z,20.83
2022-12-07T15:08:27.271Z,16.30
2022-12-07T15:10:54.369Z,17.60
2022-12-07T15:13:39.734Z,23.15
2022-12-07T15:16:09.418Z,26.92
2022-12-07T15:18:36.276Z,20.65
2022-12-07T15:21:04.095Z,19.15
2022-12-07T15:23:32.334Z,21.42
2022-12-07T15:25:59.267Z,20.98
2022-12-07T15:28:26.172Z,21.55
2022-12-07T15:30:53.130Z,24.95
2022-12-07T15:33:20.075Z,29.52
2022-12-07T15:35:47.116Z,18.77
2022-12-07T15:38:14.095Z,19.20
2022-12-07T15:40:41.803Z,19.27
2022-12-07T15:43:31.546Z,21.15
2022-12-07T15:45:58.586Z,22.13
2022-12-07T15:48:28.652Z,25.60
2022-12-07T15:51:04.517Z,17.45
2022-12-07T15:53:31.476Z,19.85
2022-12-07T15:55:58.338Z,18.95
2022-12-07T15:58:25.308Z,26.80
2022-12-07T16:00:52.211Z,27.27
2022-12-07T16:03:19.331Z,23.42
2022-12-07T16:05:53.455Z,20.95
2022-12-07T16:08:20.675Z,23.23
2022-12-07T16:10:47.793Z,25.50
2022-12-07T16:13:14.761Z,23.17
2022-12-07T16:15:42.845Z,27.30
2022-12-07T16:18:10.196Z,21.48
2022-12-07T16:20:37.063Z,22.85
2022-12-07T16:23:04.073Z,22.83
2022-12-07T16:25:30.912Z,32.10
2022-12-07T16:27:57.898Z,23.58
2022-12-07T16:30:24.802Z,29.95
2022-12-07T16:32:51.687Z,29.88
2022-12-07T16:35:18.760Z,21.05
2022-12-07T16:37:45.653Z,23.67
2022-12-07T16:40:13.191Z,22.73
2022-12-07T16:42:40.270Z,25.70
2022-12-07T16:45:07.558Z,30.35
2022-12-07T16:47:34.530Z,19.52
2022-12-07T16:50:01.351Z,22.77
2022-12-07T16:52:28.311Z,19.60
2022-12-07T16:54:55.169Z,22.67
2022-12-07T16:57:23.711Z,22.42
2022-12-07T16:59:52.456Z,21.73
2022-12-07T17:02:20.376Z,23.20
2022-12-07T17:04:47.262Z,19.17
2022-12-07T17:07:14.165Z,19.63
2022-12-07T17:09:41.121Z,22.00
2022-12-07T17:12:08.119Z,24.33
2022-12-07T17:14:53.827Z,22.70
2022-12-07T17:17:20.800Z,24.27
2022-12-07T17:19:47.716Z,29.83
2022-12-07T17:22:14.778Z,20.48
2022-12-07T17:24:42.160Z,22.40
2022-12-07T17:27:09.453Z,15.80
2022-12-07T17:29:36.420Z,19.98
2022-12-07T17:32:03.373Z,21.27
2022-12-07T17:34:30.443Z,18.33
2022-12-07T17:36:57.367Z,24.15
2022-12-07T17:39:24.249Z,20.63
2022-12-07T17:42:09.944Z,19.90
2022-12-07T17:44:36.878Z,23.10
2022-12-07T17:47:04.245Z,21.92
2022-12-07T17:49:31.554Z,23.80
2022-12-07T17:52:17.248Z,19.40
2022-12-07T17:54:44.578Z,26.73
2022-12-07T17:57:11.651Z,23.40
2022-12-07T17:59:39.055Z,22.48
2022-12-07T18:02:06.254Z,20.20
2022-12-07T18:04:33.872Z,18.58
2022-12-07T18:07:00.936Z,21.35
2022-12-07T18:09:27.877Z,21.08
2022-12-07T18:11:54.830Z,20.95
2022-12-07T18:14:21.875Z,19.05
2022-12-07T18:16:50.237Z,20.35
2022-12-07T18:19:17.580Z,16.55
2022-12-07T18:21:45.027Z,21.92
2022-12-07T18:24:13.857Z,21.50
2022-12-07T18:26:41.559Z,24.35
2022-12-07T18:29:10.769Z,25.95
2022-12-07T18:31:37.705Z,18.58
2022-12-07T18:34:12.278Z,24.13
2022-12-07T18:36:42.460Z,29.75
2022-12-07T18:39:09.957Z,20.42
2022-12-07T18:41:36.929Z,27.83
2022-12-07T18:44:05.263Z,22.85
2022-12-07T18:46:33.403Z,33.47
2022-12-07T18:49:00.819Z,41.85
2022-12-07T18:51:32.410Z,33.55
2022-12-07T18:54:04.898Z,31.10
2022-12-07T18:56:32.301Z,32.78
2022-12-07T18:59:20.312Z,35.30
2022-12-07T19:01:50.555Z,25.00
2022-12-07T19:04:18.256Z,37.20
2022-12-07T19:06:47.180Z,27.77
2022-12-07T19:09:14.668Z,26.52
2022-12-07T19:11:51.076Z,29.75
2022-12-07T19:14:28.797Z,26.45
2022-12-07T19:16:59.460Z,21.25
2022-12-07T19:19:37.554Z,19.10
2022-12-07T19:22:05.887Z,19.40
2022-12-07T19:24:33.502Z,19.35
2022-12-07T19:27:00.623Z,18.50
2022-12-07T19:29:31.410Z,20.10
2022-12-07T19:31:59.868Z,18.23
2022-12-07T19:34:27.274Z,22.33
2022-12-07T19:36:54.225Z,23.35
2022-12-07T19:39:21.434Z,24.95
2022-12-07T19:41:48.551Z,21.75
2022-12-07T19:44:17.910Z,22.13
2022-12-07T19:46:47.127Z,18.48
2022-12-07T19:49:16.278Z,22.23
2022-12-07T19:51:54.659Z,19.55
2022-12-07T19:54:23.813Z,21.48
2022-12-07T19:56:52.651Z,23.38
2022-12-07T19:59:21.959Z,24.17
2022-12-07T20:01:49.591Z,26.08
2022-12-07T20:04:20.276Z,23.25
2022-12-07T20:06:49.821Z,21.52
2022-12-07T20:09:17.504Z,22.63
2022-12-07T20:12:03.130Z,20.33
2022-12-07T20:14:30.590Z,23.98
2022-12-07T20:16:58.452Z,21.95
2022-12-07T20:19:25.556Z,22.15
2022-12-07T20:21:52.856Z,18.20
2022-12-07T20:24:22.825Z,19.52
2022-12-07T20:26:51.903Z,22.40
2022-12-07T20:29:22.098Z,21.42
2022-12-07T20:31:50.193Z,19.42
2022-12-07T20:34:17.829Z,20.02
2022-12-07T20:36:45.677Z,19.92
2022-12-07T20:39:12.817Z,27.23
2022-12-07T20:41:59.290Z,17.20
2022-12-07T20:44:26.372Z,17.45
2022-12-07T20:46:53.382Z,18.67
2022-12-07T20:49:20.576Z,20.35
2022-12-07T20:51:48.040Z,18.98
2022-12-07T20:54:15.240Z,19.00
2022-12-07T20:56:42.510Z,18.17
2022-12-07T20:59:13.871Z,16.20
2022-12-07T21:01:41.010Z,17.20
2022-12-07T21:04:08.232Z,17.08
2022-12-07T21:06:35.684Z,17.48
2022-12-07T21:09:02.676Z,22.55
2022-12-07T21:11:31.480Z,23.02
2022-12-07T21:13:58.704Z,17.92
2022-12-07T21:16:28.786Z,20.63
2022-12-07T21:18:57.334Z,18.92
2022-12-07T21:21:24.849Z,19.65
2022-12-07T21:23:58.097Z,19.08
2022-12-07T21:26:27.895Z,18.42
2022-12-07T21:28:56.020Z,20.95
2022-12-07T21:31:23.231Z,19.98
2022-12-07T21:33:50.527Z,22.98
2022-12-07T21:36:23.473Z,17.88
2022-12-07T21:38:51.167Z,26.20
2022-12-07T21:41:20.916Z,21.23
2022-12-07T21:43:48.560Z,19.23
2022-12-07T21:46:16.787Z,20.55
2022-12-07T21:48:44.341Z,23.25
2022-12-07T21:51:13.574Z,21.80
2022-12-07T21:53:42.127Z,19.67
2022-12-07T21:56:18.159Z,18.55
2022-12-07T21:58:45.867Z,29.10
2022-12-07T22:01:24.223Z,26.63
2022-12-07T22:03:52.138Z,17.05
2022-12-07T22:06:22.309Z,22.90
2022-12-07T22:08:50.601Z,24.38
2022-12-07T22:11:17.561Z,24.02
2022-12-07T22:14:09.880Z,25.27
2022-12-07T22:16:39.211Z,23.45
2022-12-07T22:19:07.374Z,24.55
2022-12-07T22:21:35.101Z,20.17
2022-12-07T22:24:03.280Z,20.38
2022-12-07T22:26:30.285Z,24.70
2022-12-07T22:28:57.233Z,26.90
2022-12-07T22:31:24.366Z,22.90
2022-12-07T22:33:51.794Z,25.83
2022-12-07T22:36:19.219Z,24.92
2022-12-07T22:38:47.165Z,21.42
2022-12-07T22:41:13.993Z,27.38
2022-12-07T22:43:40.885Z,18.85
2022-12-07T22:46:07.872Z,23.88
2022-12-07T22:48:34.926Z,54.97
2022-12-07T22:51:02.398Z,63.67
2022-12-07T22:53:29.652Z,20.15
2022-12-07T22:55:56.747Z,18.38
2022-12-07T22:58:23.897Z,23.95
2022-12-07T23:00:54.106Z,19.98
2022-12-07T23:03:21.146Z,22.45
2022-12-07T23:05:49.604Z,23.45
2022-12-07T23:08:18.109Z,36.17
2022-12-07T23:10:47.828Z,43.05
2022-12-07T23:13:33.010Z,83.50
2022-12-07T23:16:01.397Z,37.35
2022-12-07T23:18:31.007Z,34.17
2022-12-07T23:20:58.211Z,36.63
2022-12-07T23:23:25.861Z,21.35
2022-12-07T23:25:53.436Z,27.20
2022-12-07T23:28:20.438Z,24.48
2022-12-07T23:30:47.324Z,17.60
2022-12-07T23:33:14.393Z,17.75
2022-12-07T23:35:42.036Z,20.40
2022-12-07T23:38:08.932Z,18.70
2022-12-07T23:40:36.903Z,24.67
2022-12-07T23:43:03.827Z,16.40
2022-12-07T23:45:30.711Z,20.27
2022-12-07T23:47:57.562Z,18.73
2022-12-07T23:50:24.473Z,22.35
2022-12-07T23:52:51.348Z,20.35
2022-12-07T23:55:18.391Z,22.42
2022-12-07T23:57:45.340Z,24.23
